Time;durP1;ratioP1;P1;durP2;ratioP2;P2;SDS_P1;SDS_P2;PMS_P1;PMS_P2;Temp;Humidity;BMP_temperature;BMP_pressure;BME280_temperature;BME280_humidity;BME280_pressure;Samples;Min_cycle;Max_cycle;Signal;HPM_P1;HPM_P2
2022/08/17 00:01:05;;;;;;;26.90;21.98;;;;;;;20.83;88.99;100973.31;5034182;28;20026;-74
2022/08/17 00:03:37;;;;;;;29.30;22.30;;;;;;;20.84;88.69;100980.13;5032748;28;20025;-74
2022/08/17 00:06:06;;;;;;;30.13;22.80;;;;;;;20.64;89.93;100980.75;5034100;28;20048;-74
2022/08/17 00:09:04;;;;;;;29.77;23.17;;;;;;;20.65;89.75;100978.91;5033917;28;20026;-74
2022/08/17 00:11:34;;;;;;;28.25;22.50;;;;;;;20.50;90.84;100975.06;4988807;28;20034;-74
2022/08/17 00:14:07;;;;;;;29.80;22.85;;;;;;;20.54;91.38;100970.13;5033877;28;20461;-73
2022/08/17 00:16:35;;;;;;;27.27;22.15;;;;;;;20.49;91.28;100973.50;5032607;28;20026;-73
2022/08/17 00:19:03;;;;;;;34.17;23.77;;;;;;;20.43;91.22;100978.94;5032611;28;20037;-73
2022/08/17 00:21:29;;;;;;;33.78;24.00;;;;;;;20.46;91.81;100981.88;5033858;28;20033;-73
2022/08/17 00:23:55;;;;;;;37.40;24.40;;;;;;;20.54;91.30;100974.59;5032458;28;20496;-74
2022/08/17 00:26:22;;;;;;;30.80;23.88;;;;;;;20.42;92.01;100970.25;5033619;28;20029;-73
2022/08/17 00:28:47;;;;;;;33.33;24.88;;;;;;;20.44;91.29;100967.41;5033681;28;20123;-73
2022/08/17 00:31:13;;;;;;;29.13;24.15;;;;;;;20.30;93.23;100969.63;5032316;28;20572;-73
2022/08/17 00:33:42;;;;;;;33.53;25.08;;;;;;;20.29;93.17;100958.34;5033618;28;20029;-73
2022/08/17 00:36:09;;;;;;;30.30;23.83;;;;;;;20.41;93.32;100967.91;5033494;28;20025;-73
2022/08/17 00:38:35;;;;;;;33.30;24.27;;;;;;;20.60;91.56;100952.59;5032163;28;20037;-73
2022/08/17 00:41:10;;;;;;;29.13;23.58;;;;;;;20.54;91.24;100961.47;5033598;28;20076;-73
2022/08/17 00:43:45;;;;;;;31.55;23.20;;;;;;;20.45;91.85;100959.25;5032438;28;20033;-73
2022/08/17 00:46:17;;;;;;;32.10;22.05;;;;;;;20.64;91.30;100959.75;5033522;28;20021;-73
2022/08/17 00:48:44;;;;;;;31.37;21.37;;;;;;;20.51;90.82;100957.47;5032128;28;20123;-73
2022/08/17 00:51:18;;;;;;;27.23;21.73;;;;;;;20.44;91.03;100951.66;5031928;28;20412;-73
2022/08/17 00:53:50;;;;;;;27.17;21.65;;;;;;;20.47;90.34;100951.16;5031964;28;20536;-73
2022/08/17 00:56:21;;;;;;;26.48;20.60;;;;;;;20.49;89.74;100947.25;5033441;28;20026;-74
2022/08/17 00:58:48;;;;;;;28.20;21.15;;;;;;;20.57;89.28;100951.28;5032069;28;20026;-74
2022/08/17 01:01:14;;;;;;;26.63;20.63;;;;;;;20.53;88.89;100942.31;5033349;28;20109;-74
2022/08/17 01:03:42;;;;;;;30.35;20.95;;;;;;;20.47;89.14;100940.66;5033207;28;20025;-74
2022/08/17 01:06:08;;;;;;;27.85;20.60;;;;;;;20.52;89.56;100938.09;5033242;28;20060;-74
2022/08/17 01:08:35;;;;;;;25.85;20.38;;;;;;;20.63;88.76;100936.34;5033186;28;20388;-74
2022/08/17 01:11:01;;;;;;;26.85;21.27;;;;;;;20.58;89.45;100929.25;5033143;28;20430;-73
2022/08/17 01:13:30;;;;;;;32.65;21.02;;;;;;;20.56;89.44;100928.69;5031888;28;20036;-74
2022/08/17 01:16:04;;;;;;;28.48;22.50;;;;;;;20.58;89.14;100928.44;5033029;28;20033;-74
2022/08/17 01:18:30;;;;;;;27.25;21.73;;;;;;;20.55;89.46;100935.00;5033062;28;20115;-74
2022/08/17 01:21:01;;;;;;;29.92;20.55;;;;;;;20.45;89.71;100925.13;5031807;28;20030;-74
2022/08/17 01:23:27;;;;;;;27.80;21.73;;;;;;;20.37;89.45;100937.91;5031734;28;20065;-74
2022/08/17 01:26:00;;;;;;;26.20;21.88;;;;;;;20.24;90.17;100934.66;5032979;28;20118;-73
2022/08/17 01:28:29;;;;;;;29.60;21.25;;;;;;;20.40;89.13;100937.44;5033020;28;20018;-74
2022/08/17 01:30:56;;;;;;;26.15;20.77;;;;;;;20.44;87.40;100936.69;5033107;28;20052;-74
2022/08/17 01:33:21;;;;;;;26.00;19.73;;;;;;;20.38;87.23;100939.53;5032939;28;20386;-74
2022/08/17 01:35:47;;;;;;;28.50;20.23;;;;;;;20.45;86.96;100929.59;5032944;28;20029;-74
2022/08/17 01:38:12;;;;;;;25.73;19.77;;;;;;;20.42;87.27;100932.72;5032900;28;20053;-74
2022/08/17 01:40:44;;;;;;;23.38;18.88;;;;;;;20.53;86.44;100936.28;5033093;28;20029;-74
2022/08/17 01:43:17;;;;;;;28.27;19.77;;;;;;;20.56;86.32;100922.66;5032838;28;20425;-74
2022/08/17 01:45:46;;;;;;;25.65;18.95;;;;;;;20.57;85.49;100927.66;5032896;28;20110;-74
2022/08/17 01:48:12;;;;;;;27.48;19.63;;;;;;;20.62;85.07;100922.44;5036474;28;20048;-74
2022/08/17 01:50:39;;;;;;;25.42;19.42;;;;;;;20.68;85.14;100924.06;5036446;28;20057;-74
2022/08/17 01:53:12;;;;;;;27.42;20.15;;;;;;;20.81;83.90;100914.97;5035272;28;20500;-74
2022/08/17 01:55:44;;;;;;;26.35;21.00;;;;;;;20.66;84.54;100918.28;5036498;28;20473;-74
2022/08/17 01:58:09;;;;;;;24.95;19.02;;;;;;;20.58;84.18;100920.56;5036556;28;20500;-74
2022/08/17 02:00:37;;;;;;;28.85;19.77;;;;;;;20.70;84.41;100926.44;5035203;28;20095;-74
2022/08/17 02:03:03;;;;;;;29.60;19.40;;;;;;;20.68;83.70;100933.78;5035106;28;20451;-74
2022/08/17 02:05:28;;;;;;;27.15;19.17;;;;;;;20.68;83.87;100942.44;5036178;28;20043;-74
2022/08/17 02:07:53;;;;;;;26.13;20.13;;;;;;;20.64;84.33;100954.50;5036220;28;20343;-74
2022/08/17 02:10:18;;;;;;;29.55;21.73;;;;;;;20.50;89.31;100975.06;5036255;28;20048;-74
2022/08/17 02:12:44;;;;;;;35.78;21.45;;;;;;;20.44;90.02;100983.16;5036256;28;20071;-74
2022/08/17 02:15:13;;;;;;;30.63;22.63;;;;;;;20.52;93.07;100987.97;5036148;28;20533;-75
2022/08/17 02:17:39;;;;;;;30.83;22.02;;;;;;;20.42;93.26;100996.50;5036056;28;20032;-74
2022/08/17 02:20:06;;;;;;;30.20;22.33;;;;;;;20.39;93.18;101017.22;5034736;28;20477;-74
2022/08/17 02:22:32;;;;;;;37.42;22.75;;;;;;;20.19;93.06;101030.91;5036011;28;20451;-73
2022/08/17 02:24:59;;;;;;;26.60;21.58;;;;;;;20.02;94.34;101026.53;5035976;28;20053;-73
2022/08/17 02:27:24;;;;;;;29.08;20.80;;;;;;;19.93;94.09;101040.28;5034715;28;20026;-73
2022/08/17 02:29:50;;;;;;;32.30;20.98;;;;;;;19.83;95.23;101033.09;5035918;28;20021;-73
2022/08/17 02:32:25;;;;;;;28.00;21.70;;;;;;;19.81;96.75;101035.16;5035868;28;20476;-73
2022/08/17 02:34:50;;;;;;;26.20;20.73;;;;;;;19.82;95.99;101040.16;5035921;28;20500;-73
2022/08/17 02:37:16;;;;;;;29.00;21.08;;;;;;;19.95;97.39;101038.22;5035755;28;20028;-74
2022/08/17 02:39:44;;;;;;;25.85;20.23;;;;;;;19.74;96.39;101034.53;5035826;28;20043;-74
2022/08/17 02:42:09;;;;;;;27.65;22.05;;;;;;;19.68;99.44;101023.19;5035664;28;20022;-73
2022/08/17 02:44:35;;;;;;;28.80;22.55;;;;;;;19.60;100.00;101013.88;5035819;28;20038;-74
2022/08/17 02:47:00;;;;;;;31.73;24.10;;;;;;;19.55;100.00;101007.75;5035583;28;20057;-73
2022/08/17 02:49:25;;;;;;;34.13;22.42;;;;;;;19.59;100.00;100985.25;5035310;28;20041;-74
2022/08/17 02:51:51;;;;;;;35.22;23.05;;;;;;;19.75;100.00;100960.09;5035522;28;20067;-74
2022/08/17 02:54:16;;;;;;;33.25;24.15;;;;;;;19.72;100.00;100963.19;5034317;28;20017;-75
2022/08/17 02:56:42;;;;;;;31.80;22.80;;;;;;;19.70;100.00;100966.03;5034149;28;20101;-74
2022/08/17 02:59:07;;;;;;;30.08;22.92;;;;;;;19.69;100.00;100942.72;5034036;28;20036;-74
2022/08/17 03:01:32;;;;;;;31.00;23.60;;;;;;;19.66;100.00;100928.25;5035270;28;20380;-74
2022/08/17 03:03:57;;;;;;;27.08;20.10;;;;;;;19.53;100.00;100928.56;5033966;28;20036;-74
2022/08/17 03:06:23;;;;;;;24.00;19.10;;;;;;;19.61;100.00;100939.44;5033967;28;20017;-74
2022/08/17 03:08:48;;;;;;;28.05;20.13;;;;;;;19.67;100.00;100940.31;5035162;28;20507;-74
2022/08/17 03:11:14;;;;;;;30.65;19.88;;;;;;;19.66;100.00;100924.84;5033861;28;20037;-74
2022/08/17 03:13:39;;;;;;;26.55;20.02;;;;;;;19.79;100.00;100930.53;5035071;28;20056;-75
2022/08/17 03:16:05;;;;;;;23.65;18.52;;;;;;;19.79;100.00;100938.38;5035098;28;20387;-74
2022/08/17 03:18:30;;;;;;;23.20;17.80;;;;;;;19.98;100.00;100935.44;5035003;28;20025;-73
2022/08/17 03:20:58;;;;;;;21.92;16.75;;;;;;;19.88;100.00;100948.41;5034994;28;20030;-73
2022/08/17 03:23:25;;;;;;;22.75;16.75;;;;;;;19.83;100.00;100964.91;5034804;28;20076;-73
2022/08/17 03:25:51;;;;;;;23.33;17.73;;;;;;;19.73;100.00;101004.88;5034888;28;20036;-73
2022/08/17 03:28:16;;;;;;;24.50;19.17;;;;;;;19.51;100.00;101004.84;5034819;28;20079;-73
2022/08/17 03:30:41;;;;;;;27.17;20.98;;;;;;;19.47;100.00;101006.34;5033449;28;20508;-73
2022/08/17 03:33:11;;;;;;;24.58;19.20;;;;;;;19.54;100.00;100998.31;5034742;28;20025;-73
2022/08/17 03:35:39;;;;;;;24.02;18.25;;;;;;;19.61;100.00;100986.59;5033404;28;20381;-73
2022/08/17 03:38:05;;;;;;;24.30;17.65;;;;;;;19.67;100.00;101010.31;5033314;28;20022;-73
2022/08/17 03:40:31;;;;;;;24.60;18.33;;;;;;;19.64;100.00;101021.25;5034718;28;20476;-73
2022/08/17 03:42:56;;;;;;;28.65;19.10;;;;;;;19.38;100.00;100992.84;5034620;28;20036;-73
2022/08/17 03:56:41;;;;;;;30.35;21.33;;;;;;;19.44;100.00;101008.66;5034219;28;20036;-73
2022/08/17 03:59:06;;;;;;;26.67;19.88;;;;;;;19.27;100.00;100998.97;5032937;28;20051;-73
2022/08/17 04:01:31;;;;;;;31.67;20.27;;;;;;;19.33;100.00;100994.59;5032861;28;20064;-73
2022/08/17 04:03:57;;;;;;;25.15;19.60;;;;;;;19.35;100.00;100992.53;5032800;28;20025;-73
2022/08/17 04:06:22;;;;;;;24.73;19.52;;;;;;;19.25;100.00;100981.88;5034072;28;20083;-73
2022/08/17 04:08:47;;;;;;;28.10;19.20;;;;;;;19.30;100.00;100982.75;5032262;28;20035;-73
2022/08/17 04:11:12;;;;;;;27.35;19.25;;;;;;;19.21;100.00;100984.19;5032571;28;20021;-73
2022/08/17 04:13:38;;;;;;;25.70;19.48;;;;;;;19.22;100.00;100991.03;5032727;28;20032;-73
2022/08/17 04:16:03;;;;;;;27.20;20.02;;;;;;;19.30;100.00;100990.63;5034118;28;20112;-73
2022/08/17 04:18:29;;;;;;;27.20;20.08;;;;;;;19.28;100.00;100986.69;5033887;28;20026;-73
2022/08/17 04:20:54;;;;;;;31.05;20.48;;;;;;;19.29;100.00;100983.00;5032513;28;20021;-73
2022/08/17 04:23:20;;;;;;;28.27;20.35;;;;;;;19.31;100.00;100976.50;5032439;28;20021;-73
2022/08/17 04:25:48;;;;;;;27.25;20.60;;;;;;;19.49;100.00;100985.94;5033806;28;20030;-73
2022/08/17 04:28:15;;;;;;;32.92;19.10;;;;;;;19.49;100.00;100988.53;5033675;28;20496;-73
2022/08/17 04:30:41;;;;;;;29.83;18.83;;;;;;;19.64;100.00;100990.56;5033677;28;20021;-73
2022/08/17 04:33:10;;;;;;;23.00;17.30;;;;;;;19.72;100.00;100984.94;5033782;28;20044;-72
2022/08/17 04:35:46;;;;;;;23.30;16.58;;;;;;;19.56;100.00;100996.22;5032327;28;20028;-73
2022/08/17 04:38:20;;;;;;;26.80;17.15;;;;;;;19.60;100.00;100981.63;5033673;28;20025;-73
2022/08/17 04:43:32;;;;;;;19.85;15.43;;;;;;;19.53;100.00;100996.72;5033723;28;20102;-73
2022/08/17 04:46:01;;;;;;;20.42;15.27;;;;;;;19.68;100.00;100998.78;5033450;28;20183;-74
2022/08/17 04:48:29;;;;;;;17.58;14.23;;;;;;;19.75;100.00;100999.41;5032188;28;20037;-74
2022/08/17 04:50:54;;;;;;;18.83;13.52;;;;;;;19.73;100.00;100997.00;5033304;28;20111;-73
2022/08/17 04:53:20;;;;;;;17.13;13.57;;;;;;;19.72;100.00;100999.91;5031956;28;20487;-73
2022/08/17 04:55:46;;;;;;;17.08;13.20;;;;;;;19.84;100.00;101003.19;5032154;28;20025;-73
2022/08/17 04:58:11;;;;;;;16.88;12.18;;;;;;;19.70;100.00;101001.97;5033404;28;20115;-74
2022/08/17 05:00:38;;;;;;;17.70;12.52;;;;;;;19.59;100.00;100999.19;5031914;28;20110;-74
2022/08/17 05:03:04;;;;;;;19.25;12.15;;;;;;;19.65;100.00;101009.72;5033194;28;20021;-73
2022/08/17 05:05:35;;;;;;;17.77;11.27;;;;;;;19.59;100.00;100999.19;5033083;28;20036;-73
2022/08/17 05:08:02;;;;;;;17.63;10.25;;;;;;;19.63;100.00;100991.63;5031880;28;20059;-73
2022/08/17 05:10:30;;;;;;;12.40;8.90;;;;;;;19.68;100.00;100990.91;5031791;28;20111;-73
2022/08/17 05:13:08;;;;;;;9.85;7.93;;;;;;;19.76;100.00;100986.03;5031805;28;20036;-74
2022/08/17 05:15:36;;;;;;;9.13;7.15;;;;;;;19.76;100.00;100991.28;5033108;28;20040;-73
2022/08/17 05:18:02;;;;;;;10.52;6.97;;;;;;;19.45;100.00;100974.34;5033006;28;20028;-74
2022/08/17 05:20:27;;;;;;;9.27;6.20;;;;;;;19.57;100.00;100998.63;5033022;28;20037;-73
2022/08/17 05:22:55;;;;;;;9.05;6.60;;;;;;;19.51;100.00;100991.72;5036662;28;20365;-74
2022/08/17 05:25:27;;;;;;;8.15;6.20;;;;;;;19.48;100.00;100986.97;5037062;28;20021;-73
2022/08/17 05:27:53;;;;;;;10.90;6.10;;;;;;;19.58;100.00;100989.72;5037020;28;20056;-73
2022/08/17 05:30:20;;;;;;;7.88;6.38;;;;;;;19.60;100.00;100986.88;5037088;28;20031;-73
2022/08/17 05:33:03;;;;;;;9.63;6.47;;;;;;;19.66;100.00;100990.38;5037016;28;20029;-73
2022/08/17 05:35:31;;;;;;;9.00;6.57;;;;;;;19.67;100.00;100987.50;5035899;28;20396;-73
2022/08/17 05:37:57;;;;;;;8.10;6.35;;;;;;;19.61;100.00;100978.75;5036714;28;20025;-74
2022/08/17 05:40:24;;;;;;;8.30;6.28;;;;;;;19.61;100.00;100977.97;5036151;28;20029;-73
2022/08/17 05:42:50;;;;;;;11.75;6.50;;;;;;;19.81;100.00;100980.09;5035835;28;20022;-73
2022/08/17 05:45:18;;;;;;;10.07;5.70;;;;;;;19.83;100.00;100975.41;5035501;28;20389;-74
2022/08/17 05:47:45;;;;;;;6.63;5.18;;;;;;;19.80;100.00;100966.19;5036637;28;20048;-73
2022/08/17 05:50:24;;;;;;;7.63;5.45;;;;;;;19.86;100.00;100972.28;5036318;28;20049;-73
2022/08/17 05:53:09;;;;;;;6.55;5.85;;;;;;;20.12;100.00;100968.13;5033928;28;20033;-74
2022/08/17 05:56:04;;;;;;;8.55;5.90;;;;;;;20.09;100.00;100968.63;5036197;28;20499;-74
2022/08/17 05:58:48;;;;;;;8.95;6.53;;;;;;;20.19;100.00;100963.47;5005094;28;20042;-73
2022/08/17 06:01:25;;;;;;;9.25;7.10;;;;;;;20.18;100.00;100976.84;5034696;28;20029;-74
2022/08/17 06:03:59;;;;;;;9.40;7.45;;;;;;;20.18;100.00;100961.09;5035906;28;20026;-73
2022/08/17 06:06:44;;;;;;;9.55;7.65;;;;;;;20.19;100.00;100968.72;5036118;28;20021;-73
2022/08/17 06:09:27;;;;;;;10.40;8.45;;;;;;;20.32;100.00;100972.00;5036451;28;20393;-73
2022/08/17 06:12:02;;;;;;;13.70;8.82;;;;;;;20.23;100.00;100956.69;5035161;28;20041;-73
2022/08/17 06:14:57;;;;;;;12.25;8.05;;;;;;;20.37;100.00;100964.16;5034893;28;20516;-73
2022/08/17 06:17:23;;;;;;;11.18;8.15;;;;;;;20.48;100.00;100950.09;5036162;28;20025;-74
2022/08/17 06:20:00;;;;;;;11.27;7.43;;;;;;;20.43;100.00;100960.56;5034833;28;20108;-75
2022/08/17 06:22:32;;;;;;;8.60;7.00;;;;;;;20.48;100.00;100950.91;5034695;28;20025;-74
2022/08/17 06:25:11;;;;;;;8.02;6.50;;;;;;;20.60;100.00;100949.97;5034845;28;20064;-74
2022/08/17 06:27:50;;;;;;;8.07;6.13;;;;;;;20.61;100.00;100954.19;5034747;28;20396;-74
2022/08/17 06:30:27;;;;;;;7.10;5.85;;;;;;;20.61;100.00;100978.63;5035963;28;20021;-73
2022/08/17 06:32:58;;;;;;;7.68;6.00;;;;;;;20.70;100.00;100982.38;5035332;28;20111;-73
2022/08/17 06:35:36;;;;;;;8.20;5.15;;;;;;;20.72;100.00;100993.44;5035319;28;20096;-73
2022/08/17 06:38:08;;;;;;;11.25;5.85;;;;;;;20.75;100.00;101009.72;5035719;28;20021;-72
2022/08/17 06:40:57;;;;;;;7.35;5.80;;;;;;;20.70;100.00;101015.72;5035608;28;20028;-72
2022/08/17 06:43:31;;;;;;;7.00;5.10;;;;;;;20.89;100.00;101027.47;5035519;28;20107;-73
2022/08/17 06:46:03;;;;;;;7.45;5.55;;;;;;;21.06;100.00;101024.72;5035637;28;20437;-72
2022/08/17 06:48:55;;;;;;;6.60;4.80;;;;;;;20.95;99.65;101015.16;5034892;28;20030;-73
2022/08/17 06:51:26;;;;;;;9.45;5.70;;;;;;;21.35;99.70;101004.16;4997070;28;20061;-74
2022/08/17 06:54:01;;;;;;;7.30;5.22;;;;;;;21.32;97.42;101006.47;5033837;28;20018;-72
2022/08/17 06:56:38;;;;;;;7.25;5.03;;;;;;;21.30;96.29;101011.22;5035196;28;20033;-72
2022/08/17 06:59:06;;;;;;;6.05;4.85;;;;;;;21.46;93.91;101012.13;5035110;28;20439;-72
2022/08/17 07:01:34;;;;;;;6.18;4.70;;;;;;;21.39;95.59;101015.78;5033748;28;20025;-72
2022/08/17 07:04:12;;;;;;;5.22;4.55;;;;;;;21.31;94.36;101021.47;5033865;28;20025;-72
2022/08/17 07:06:52;;;;;;;8.27;4.65;;;;;;;21.27;94.34;101027.50;5034007;28;20128;-72
2022/08/17 07:09:32;;;;;;;5.85;4.60;;;;;;;21.51;95.17;101027.94;5035380;28;20021;-72
2022/08/17 07:12:08;;;;;;;8.48;5.07;;;;;;;21.64;94.63;101038.03;5035223;28;20079;-73
2022/08/17 07:14:39;;;;;;;5.75;4.90;;;;;;;21.40;95.34;101033.13;5033850;28;20108;-72
2022/08/17 07:17:12;;;;;;;7.35;4.93;;;;;;;21.27;98.95;101036.16;5033814;28;20041;-73
2022/08/17 07:19:40;;;;;;;6.32;5.40;;;;;;;21.18;98.62;101035.84;5034962;28;20026;-73
2022/08/17 07:22:14;;;;;;;10.15;5.88;;;;;;;21.21;98.87;101031.13;5034925;28;20025;-73
2022/08/17 07:24:43;;;;;;;7.25;6.20;;;;;;;21.29;97.17;101034.09;5034840;28;20026;-73
2022/08/17 07:27:14;;;;;;;7.78;6.35;;;;;;;21.22;98.36;101020.34;5034853;28;20025;-73
2022/08/17 07:29:48;;;;;;;9.50;6.40;;;;;;;21.26;97.96;101025.88;5034767;28;20034;-73
2022/08/17 07:32:17;;;;;;;10.00;6.93;;;;;;;21.31;95.76;101039.06;5033469;28;20036;-73
2022/08/17 07:35:31;;;;;;;8.80;7.00;;;;;;;21.29;95.80;101049.03;5033399;28;20025;-73
2022/08/17 07:38:17;;;;;;;10.20;7.15;;;;;;;21.37;95.41;101040.72;4956579;28;20022;-73
2022/08/17 07:40:46;;;;;;;8.93;7.25;;;;;;;21.43;96.05;101029.19;5034487;28;20026;-73
2022/08/17 07:43:22;;;;;;;13.45;8.00;;;;;;;21.27;94.00;101036.16;5033370;28;20025;-73
2022/08/17 07:48:38;;;;;;;12.80;9.20;;;;;;;21.18;96.31;101035.84;5034429;28;20451;-73
2022/08/17 07:51:16;;;;;;;12.02;9.20;;;;;;;21.23;96.66;101029.81;5034212;28;20515;-73
2022/08/17 07:53:42;;;;;;;11.35;9.15;;;;;;;21.16;97.80;101029.25;5034244;28;20524;-73
2022/08/17 07:56:07;;;;;;;13.20;9.25;;;;;;;21.05;98.43;101023.09;5032969;28;20112;-73
2022/08/17 07:58:32;;;;;;;14.85;9.80;;;;;;;21.25;98.23;101038.25;5034178;28;20076;-72
2022/08/17 08:01:07;;;;;;;13.30;9.52;;;;;;;21.31;97.24;101046.97;5034194;28;20047;-73
2022/08/17 08:03:41;;;;;;;14.77;9.98;;;;;;;21.31;98.91;101039.88;5034045;28;20025;-73
2022/08/17 08:06:21;;;;;;;13.25;9.57;;;;;;;21.40;98.09;101037.59;5034123;28;20018;-72
2022/08/17 08:08:53;;;;;;;13.27;10.70;;;;;;;21.49;97.84;101040.53;5034043;28;20029;-73
2022/08/17 08:11:31;;;;;;;15.60;11.50;;;;;;;21.50;100.00;101035.03;5032792;28;20480;-74
2022/08/17 08:14:32;;;;;;;17.33;12.27;;;;;;;21.61;100.00;101044.56;5033925;28;20014;-73
2022/08/17 08:17:04;;;;;;;19.02;12.75;;;;;;;21.73;100.00;101046.22;5033916;28;20026;-74
2022/08/17 08:19:30;;;;;;;17.80;13.53;;;;;;;21.47;100.00;101051.31;5033937;28;20025;-73
2022/08/17 08:22:17;;;;;;;17.75;13.73;;;;;;;21.54;100.00;101053.72;5033800;28;20100;-74
2022/08/17 08:25:01;;;;;;;19.45;15.02;;;;;;;21.23;100.00;101057.94;5032457;28;20022;-74
2022/08/17 08:28:00;;;;;;;22.48;16.30;;;;;;;21.23;100.00;101058.72;5033711;28;20022;-74
2022/08/17 08:30:27;;;;;;;25.05;17.33;;;;;;;21.15;100.00;101046.84;5033646;28;20026;-74
2022/08/17 08:33:38;;;;;;;25.52;17.73;;;;;;;21.41;100.00;101062.84;5033890;28;20028;-74
2022/08/17 08:36:25;;;;;;;22.15;17.27;;;;;;;21.56;100.00;101049.00;4972781;28;20035;-74
2022/08/17 08:39:07;;;;;;;25.23;16.80;;;;;;;21.60;99.06;101058.75;5032116;28;20511;-74
2022/08/17 08:41:42;;;;;;;22.23;16.57;;;;;;;21.60;98.27;101056.13;5033663;28;20083;-74
2022/08/17 08:44:17;;;;;;;21.27;15.82;;;;;;;21.73;96.26;101057.53;5032143;28;20288;-74
2022/08/17 08:46:48;;;;;;;20.67;15.93;;;;;;;21.80;95.35;101063.34;5033474;28;20066;-74
2022/08/17 08:49:33;;;;;;;20.50;14.85;;;;;;;21.81;93.97;101057.06;5033269;28;20033;-74
2022/08/17 08:52:02;;;;;;;15.93;12.52;;;;;;;21.58;90.51;101071.38;5033359;28;20056;-74
2022/08/17 08:54:45;;;;;;;17.40;11.52;;;;;;;21.65;89.65;101075.63;5032005;28;20033;-74
2022/08/17 08:57:29;;;;;;;19.75;11.73;;;;;;;21.84;89.06;101069.69;5033207;28;20380;-74
2022/08/17 09:00:05;;;;;;;13.30;10.88;;;;;;;22.14;88.28;101081.41;5032270;28;20091;-74
2022/08/17 09:03:03;;;;;;;13.32;10.02;;;;;;;21.94;87.13;101082.09;5033123;28;20025;-76
2022/08/17 09:06:02;;;;;;;14.55;9.40;;;;;;;21.82;87.00;101090.19;5033572;28;20026;-74
2022/08/17 09:08:47;;;;;;;9.77;8.35;;;;;;;21.53;86.95;101096.84;5002818;28;20041;-74
2022/08/17 09:11:23;;;;;;;15.77;8.20;;;;;;;21.57;86.18;101101.34;5033132;28;20025;-74
2022/08/17 09:14:01;;;;;;;11.65;7.78;;;;;;;21.70;86.44;101105.38;5033238;28;20021;-74
2022/08/17 09:16:34;;;;;;;14.32;7.80;;;;;;;21.97;84.98;101105.25;5033227;28;20080;-73
2022/08/17 09:19:14;;;;;;;12.75;7.68;;;;;;;21.89;84.04;101092.59;5033173;28;20496;-73
2022/08/17 09:21:51;;;;;;;10.98;8.10;;;;;;;22.23;84.41;101092.25;5031832;28;20029;-73
2022/08/17 09:24:34;;;;;;;10.18;7.57;;;;;;;22.04;83.25;101087.44;5032951;28;20473;-73
2022/08/17 09:27:05;;;;;;;16.15;8.10;;;;;;;22.11;85.42;101086.41;5031655;28;20045;-72
2022/08/17 09:29:35;;;;;;;8.82;6.68;;;;;;;22.08;83.46;101087.69;5033021;28;20080;-73
2022/08/17 09:32:13;;;;;;;10.63;7.00;;;;;;;22.02;83.35;101089.50;5033095;28;20412;-72
2022/08/17 09:34:49;;;;;;;11.70;6.45;;;;;;;22.16;82.18;101097.75;5032765;28;20507;-73
2022/08/17 09:37:28;;;;;;;8.68;6.32;;;;;;;22.01;82.88;101101.09;5032908;28;20021;-73
2022/08/17 09:40:08;;;;;;;7.85;6.65;;;;;;;21.47;82.70;101106.53;5031675;28;20137;-74
2022/08/17 09:42:52;;;;;;;11.18;6.43;;;;;;;21.44;82.94;101127.28;5032861;28;20100;-72
2022/08/17 09:45:49;;;;;;;10.07;6.53;;;;;;;20.99;82.00;101155.47;5032768;28;20060;-72
2022/08/17 09:48:36;;;;;;;8.02;6.20;;;;;;;20.67;81.23;101171.13;5031443;28;20025;-73
2022/08/17 09:51:12;;;;;;;9.75;6.10;;;;;;;20.40;83.16;101179.72;5032614;28;20456;-72
2022/08/17 09:53:38;;;;;;;9.40;7.30;;;;;;;20.42;84.23;101171.56;5032641;28;20052;-72
2022/08/17 09:56:22;;;;;;;9.18;6.88;;;;;;;20.73;85.46;101163.06;5032677;28;20472;-73
2022/08/17 09:59:15;;;;;;;13.63;8.20;;;;;;;20.52;85.05;101163.84;5031394;28;20087;-74
2022/08/17 10:02:16;;;;;;;13.38;9.15;;;;;;;20.32;90.26;101164.38;5031314;28;20035;-75
2022/08/17 10:05:05;;;;;;;12.43;8.48;;;;;;;20.38;91.34;101131.91;4971607;28;20030;-74
2022/08/17 10:07:46;;;;;;;16.80;9.40;;;;;;;20.57;93.18;101097.50;5030399;28;20156;-74
2022/08/17 10:10:19;;;;;;;22.88;9.90;;;;;;;20.28;95.43;101063.53;5036304;28;20396;-75
2022/08/17 10:13:10;;;;;;;33.60;12.75;;;;;;;20.36;99.97;101043.94;5036243;28;20124;-74
2022/08/17 10:15:49;;;;;;;19.52;10.32;;;;;;;20.47;99.19;101025.44;5036227;28;20027;-74
2022/08/17 10:18:40;;;;;;;13.35;9.50;;;;;;;20.45;97.62;101038.00;5036145;28;20079;-74
2022/08/17 10:26:52;;;;;;;13.77;8.52;;;;;;;20.89;95.11;101052.94;5035944;28;20068;-74
2022/08/17 10:29:23;;;;;;;12.57;8.68;;;;;;;21.14;94.44;101049.72;5034451;28;20064;-74
2022/08/17 10:32:05;;;;;;;13.50;8.65;;;;;;;21.35;94.48;101048.06;5034368;28;20049;-74
2022/08/17 10:34:58;;;;;;;18.27;9.30;;;;;;;21.77;92.42;101050.69;5034605;28;20116;-74
2022/08/17 10:37:35;;;;;;;12.25;8.05;;;;;;;21.91;90.12;101060.78;5035839;28;20384;-74
2022/08/17 10:40:26;;;;;;;12.55;8.07;;;;;;;22.55;88.02;101065.78;5034547;28;20388;-74
2022/08/17 10:42:58;;;;;;;13.18;8.02;;;;;;;22.69;89.67;101077.38;5033961;28;20017;-74
2022/08/17 10:45:45;;;;;;;13.68;7.65;;;;;;;23.17;84.43;101085.13;5034242;28;20037;-74
2022/08/17 10:48:35;;;;;;;11.50;6.85;;;;;;;22.86;82.81;101092.97;5034183;28;20029;-74
2022/08/17 10:51:08;;;;;;;9.57;7.15;;;;;;;22.74;85.89;101097.69;5035245;28;20045;-74
2022/08/17 10:53:33;;;;;;;9.55;6.97;;;;;;;23.01;87.07;101092.22;5034046;28;20080;-73
2022/08/17 10:56:11;;;;;;;8.93;6.80;;;;;;;23.19;84.19;101098.84;5035363;28;20026;-74
2022/08/17 10:58:48;;;;;;;12.05;7.57;;;;;;;23.03;85.68;101102.50;5034332;28;20334;-74
2022/08/17 11:01:15;;;;;;;9.77;7.00;;;;;;;22.77;84.20;101104.28;5034170;28;20024;-74
2022/08/17 11:03:54;;;;;;;11.02;7.55;;;;;;;22.93;84.02;101113.78;5035245;28;20108;-73
2022/08/17 11:06:34;;;;;;;11.50;7.68;;;;;;;22.92;82.97;101107.72;5035229;28;20063;-73
2022/08/17 11:09:30;;;;;;;13.93;8.93;;;;;;;22.26;85.10;101113.59;5035120;28;20028;-74
2022/08/17 11:12:18;;;;;;;12.68;9.30;;;;;;;22.60;84.72;101121.09;5029862;28;20485;-74
2022/08/17 11:14:59;;;;;;;14.15;10.18;;;;;;;22.96;84.64;101119.38;5023114;28;20481;-73
2022/08/17 11:18:05;;;;;;;14.30;10.95;;;;;;;22.78;82.77;101132.22;5033880;28;20115;-73
2022/08/17 11:20:51;;;;;;;15.75;11.55;;;;;;;22.85;84.39;101128.28;5035012;28;20080;-73
2022/08/17 11:23:47;;;;;;;16.67;12.15;;;;;;;22.74;86.43;101145.91;4994007;28;20045;-73
2022/08/17 11:26:26;;;;;;;19.33;13.10;;;;;;;22.71;86.65;101153.53;5033863;28;20076;-73
2022/08/17 11:29:07;;;;;;;19.25;13.07;;;;;;;22.75;85.22;101150.09;5034729;28;20112;-73
2022/08/17 11:31:38;;;;;;;20.33;14.05;;;;;;;22.75;85.10;101165.13;5034852;28;20032;-72
2022/08/17 11:34:25;;;;;;;21.70;14.95;;;;;;;22.75;84.01;101178.31;5034755;28;20014;-72
2022/08/17 11:37:27;;;;;;;20.38;15.00;;;;;;;22.53;83.29;101184.56;5034779;28;20079;-73
2022/08/17 11:40:05;;;;;;;21.98;14.73;;;;;;;22.15;84.07;101206.69;5034580;28;20033;-72
2022/08/17 11:42:45;;;;;;;22.67;16.25;;;;;;;22.07;88.32;101194.03;5034570;28;20048;-72
2022/08/17 11:45:29;;;;;;;27.50;17.25;;;;;;;21.79;87.00;101200.41;5033171;28;20061;-73
2022/08/17 11:51:33;;;;;;;22.52;16.08;;;;;;;21.36;88.75;101196.84;5034129;28;20071;-72
2022/08/17 11:54:31;;;;;;;25.05;16.05;;;;;;;21.23;88.69;101189.34;5033131;28;20033;-72
2022/08/17 11:57:25;;;;;;;24.33;17.00;;;;;;;21.35;89.66;101201.31;5029914;28;20128;-72
2022/08/17 11:59:50;;;;;;;23.42;16.80;;;;;;;21.53;88.26;101194.91;5034085;28;20048;-73
2022/08/17 12:02:18;;;;;;;27.77;18.10;;;;;;;21.58;90.55;101199.44;5034066;28;20021;-72
2022/08/17 12:05:26;;;;;;;23.55;16.80;;;;;;;21.59;90.75;101190.50;5034073;28;20026;-73
2022/08/17 12:08:00;;;;;;;25.73;17.52;;;;;;;21.59;92.03;101186.03;5034090;28;20522;-72